Rockport, Utah
Current Conditions -  °F | °C
As of 2:35 PM on Monday 24 Nov 2014 (Local Time) from K36U Reporting Station
Overcast Overcast  
Wind Chill: 31°   Ceiling: 6000
Heat Index: 36°   Visibility: 10mi
Dew Point: 18°   Wind: 6mph
Humidity: 48%   Direction: 30°NNE
Pressure: 30.32"   Gusts: NA
Location:  40.7654°N, 111.287°W
Report Text: K36U 242135Z AUTO 03005KT 10SM BKN060 BKN075 OVC080 02/M08 A3032 RMK AO2
Loading
Personal Weather Stations






























Interactive Weather Map New forecast layout! Learn more

10-Day Weather Forecast

Advertisements
Track Severe Weather on mobile